sensor_id;sensor_type;location;lat;lon;timestamp;P1;durP1;ratioP1;P2;durP2;ratioP2
54897;SDS011;40800;52.704;6.398;2023-08-06T00:00:04;37.53;;;34.88;;
54897;SDS011;40800;52.704;6.398;2023-08-06T00:02:30;36.92;;;34.35;;
54897;SDS011;40800;52.704;6.398;2023-08-06T00:04:56;36.17;;;33.60;;
54897;SDS011;40800;52.704;6.398;2023-08-06T00:07:21;36.55;;;34.03;;
54897;SDS011;40800;52.704;6.398;2023-08-06T00:09:47;36.40;;;33.85;;
54897;SDS011;40800;52.704;6.398;2023-08-06T00:12:13;34.92;;;32.53;;
54897;SDS011;40800;52.704;6.398;2023-08-06T00:14:38;36.20;;;33.83;;
54897;SDS011;40800;52.704;6.398;2023-08-06T00:17:04;35.78;;;33.40;;
54897;SDS011;40800;52.704;6.398;2023-08-06T00:19:30;36.00;;;33.53;;
54897;SDS011;40800;52.704;6.398;2023-08-06T00:21:57;36.05;;;33.63;;
54897;SDS011;40800;52.704;6.398;2023-08-06T00:24:22;35.47;;;32.92;;
54897;SDS011;40800;52.704;6.398;2023-08-06T00:26:48;35.22;;;32.53;;
54897;SDS011;40800;52.704;6.398;2023-08-06T00:29:14;35.47;;;33.08;;
54897;SDS011;40800;52.704;6.398;2023-08-06T00:31:39;34.67;;;32.38;;
54897;SDS011;40800;52.704;6.398;2023-08-06T00:34:05;35.08;;;32.58;;
54897;SDS011;40800;52.704;6.398;2023-08-06T00:36:31;36.30;;;33.80;;
54897;SDS011;40800;52.704;6.398;2023-08-06T00:38:56;35.95;;;33.28;;
54897;SDS011;40800;52.704;6.398;2023-08-06T00:41:22;34.60;;;32.20;;
54897;SDS011;40800;52.704;6.398;2023-08-06T00:43:47;34.80;;;32.40;;
54897;SDS011;40800;52.704;6.398;2023-08-06T00:46:13;35.03;;;32.47;;
54897;SDS011;40800;52.704;6.398;2023-08-06T00:48:39;35.63;;;33.00;;
54897;SDS011;40800;52.704;6.398;2023-08-06T00:51:06;34.45;;;32.15;;
54897;SDS011;40800;52.704;6.398;2023-08-06T00:53:34;34.90;;;32.60;;
54897;SDS011;40800;52.704;6.398;2023-08-06T00:55:59;34.83;;;32.42;;
54897;SDS011;40800;52.704;6.398;2023-08-06T00:58:26;34.65;;;32.10;;
54897;SDS011;40800;52.704;6.398;2023-08-06T01:00:52;34.80;;;32.30;;
54897;SDS011;40800;52.704;6.398;2023-08-06T01:03:17;34.70;;;32.40;;
54897;SDS011;40800;52.704;6.398;2023-08-06T01:05:43;34.30;;;32.00;;
54897;SDS011;40800;52.704;6.398;2023-08-06T01:13:42;34.83;;;32.42;;
54897;SDS011;40800;52.704;6.398;2023-08-06T01:16:17;34.10;;;31.83;;
54897;SDS011;40800;52.704;6.398;2023-08-06T01:18:43;33.80;;;31.52;;
54897;SDS011;40800;52.704;6.398;2023-08-06T01:21:14;34.28;;;31.98;;
54897;SDS011;40800;52.704;6.398;2023-08-06T01:23:40;34.40;;;32.03;;
54897;SDS011;40800;52.704;6.398;2023-08-06T01:26:12;35.17;;;32.78;;
54897;SDS011;40800;52.704;6.398;2023-08-06T01:28:41;34.85;;;32.55;;
54897;SDS011;40800;52.704;6.398;2023-08-06T01:31:13;34.58;;;32.17;;
54897;SDS011;40800;52.704;6.398;2023-08-06T01:33:45;33.95;;;31.65;;
54897;SDS011;40800;52.704;6.398;2023-08-06T01:36:12;34.97;;;32.58;;
54897;SDS011;40800;52.704;6.398;2023-08-06T01:38:41;34.58;;;32.17;;
54897;SDS011;40800;52.704;6.398;2023-08-06T01:41:07;35.88;;;33.28;;
54897;SDS011;40800;52.704;6.398;2023-08-06T01:43:32;36.58;;;34.08;;
54897;SDS011;40800;52.704;6.398;2023-08-06T01:45:58;36.45;;;33.78;;
54897;SDS011;40800;52.704;6.398;2023-08-06T01:48:23;36.80;;;34.20;;
54897;SDS011;40800;52.704;6.398;2023-08-06T01:50:49;38.50;;;35.58;;
54897;SDS011;40800;52.704;6.398;2023-08-06T01:53:15;38.03;;;35.22;;
54897;SDS011;40800;52.704;6.398;2023-08-06T01:55:40;38.55;;;35.65;;
54897;SDS011;40800;52.704;6.398;2023-08-06T01:58:06;37.28;;;34.58;;
54897;SDS011;40800;52.704;6.398;2023-08-06T02:00:31;36.58;;;34.03;;
54897;SDS011;40800;52.704;6.398;2023-08-06T02:02:57;38.03;;;35.33;;
54897;SDS011;40800;52.704;6.398;2023-08-06T02:05:23;38.72;;;36.03;;
54897;SDS011;40800;52.704;6.398;2023-08-06T02:07:48;38.40;;;35.70;;
54897;SDS011;40800;52.704;6.398;2023-08-06T02:10:14;37.63;;;35.03;;
54897;SDS011;40800;52.704;6.398;2023-08-06T02:12:39;37.97;;;35.28;;
54897;SDS011;40800;52.704;6.398;2023-08-06T02:15:05;38.05;;;35.28;;
54897;SDS011;40800;52.704;6.398;2023-08-06T02:17:32;37.90;;;35.30;;
54897;SDS011;40800;52.704;6.398;2023-08-06T02:19:57;36.88;;;34.17;;
54897;SDS011;40800;52.704;6.398;2023-08-06T02:22:23;37.75;;;35.00;;
54897;SDS011;40800;52.704;6.398;2023-08-06T02:24:49;37.10;;;34.65;;
54897;SDS011;40800;52.704;6.398;2023-08-06T02:27:14;37.03;;;34.45;;
54897;SDS011;40800;52.704;6.398;2023-08-06T02:29:40;37.25;;;34.65;;
54897;SDS011;40800;52.704;6.398;2023-08-06T02:32:06;38.13;;;35.37;;
54897;SDS011;40800;52.704;6.398;2023-08-06T02:34:32;37.92;;;35.25;;
54897;SDS011;40800;52.704;6.398;2023-08-06T02:36:58;38.35;;;35.67;;
54897;SDS011;40800;52.704;6.398;2023-08-06T02:39:23;38.20;;;35.53;;
54897;SDS011;40800;52.704;6.398;2023-08-06T02:41:50;37.67;;;35.00;;
54897;SDS011;40800;52.704;6.398;2023-08-06T02:44:16;36.50;;;34.00;;
54897;SDS011;40800;52.704;6.398;2023-08-06T02:46:41;36.72;;;34.13;;
54897;SDS011;40800;52.704;6.398;2023-08-06T02:49:09;36.85;;;34.08;;
54897;SDS011;40800;52.704;6.398;2023-08-06T02:51:34;36.75;;;34.15;;
54897;SDS011;40800;52.704;6.398;2023-08-06T02:54:00;37.45;;;34.55;;
54897;SDS011;40800;52.704;6.398;2023-08-06T02:56:25;37.38;;;34.67;;
54897;SDS011;40800;52.704;6.398;2023-08-06T02:58:51;36.05;;;33.55;;
54897;SDS011;40800;52.704;6.398;2023-08-06T03:01:17;35.17;;;32.75;;
54897;SDS011;40800;52.704;6.398;2023-08-06T03:03:42;35.50;;;33.03;;
54897;SDS011;40800;52.704;6.398;2023-08-06T03:06:08;35.60;;;33.13;;
54897;SDS011;40800;52.704;6.398;2023-08-06T03:08:33;35.22;;;32.70;;
54897;SDS011;40800;52.704;6.398;2023-08-06T03:10:59;35.28;;;32.60;;
54897;SDS011;40800;52.704;6.398;2023-08-06T03:13:25;34.08;;;31.70;;
54897;SDS011;40800;52.704;6.398;2023-08-06T03:15:54;35.60;;;32.85;;
54897;SDS011;40800;52.704;6.398;2023-08-06T03:18:24;35.45;;;32.85;;
54897;SDS011;40800;52.704;6.398;2023-08-06T03:20:51;36.03;;;33.05;;
54897;SDS011;40800;52.704;6.398;2023-08-06T03:23:16;35.45;;;32.92;;
54897;SDS011;40800;52.704;6.398;2023-08-06T03:25:43;35.60;;;32.97;;
54897;SDS011;40800;52.704;6.398;2023-08-06T03:28:09;34.60;;;31.88;;
54897;SDS011;40800;52.704;6.398;2023-08-06T03:30:34;33.92;;;31.63;;
54897;SDS011;40800;52.704;6.398;2023-08-06T03:33:00;33.25;;;30.95;;
54897;SDS011;40800;52.704;6.398;2023-08-06T03:35:25;34.08;;;31.55;;
54897;SDS011;40800;52.704;6.398;2023-08-06T03:37:51;33.35;;;31.00;;
54897;SDS011;40800;52.704;6.398;2023-08-06T03:40:17;33.72;;;31.02;;
54897;SDS011;40800;52.704;6.398;2023-08-06T03:42:42;32.35;;;30.05;;
54897;SDS011;40800;52.704;6.398;2023-08-06T03:45:08;33.47;;;30.73;;
54897;SDS011;40800;52.704;6.398;2023-08-06T03:47:34;32.15;;;29.63;;
54897;SDS011;40800;52.704;6.398;2023-08-06T03:50:00;33.35;;;30.70;;
54897;SDS011;40800;52.704;6.398;2023-08-06T03:52:25;32.15;;;29.77;;
54897;SDS011;40800;52.704;6.398;2023-08-06T03:54:51;32.45;;;30.15;;
54897;SDS011;40800;52.704;6.398;2023-08-06T03:57:17;31.23;;;28.75;;
54897;SDS011;40800;52.704;6.398;2023-08-06T03:59:42;31.05;;;28.95;;
54897;SDS011;40800;52.704;6.398;2023-08-06T04:02:08;32.10;;;29.70;;
54897;SDS011;40800;52.704;6.398;2023-08-06T04:04:34;31.35;;;29.20;;
54897;SDS011;40800;52.704;6.398;2023-08-06T04:06:59;32.75;;;29.92;;
54897;SDS011;40800;52.704;6.398;2023-08-06T04:09:25;32.33;;;30.02;;
54897;SDS011;40800;52.704;6.398;2023-08-06T04:11:52;32.92;;;30.50;;
54897;SDS011;40800;52.704;6.398;2023-08-06T04:14:17;33.13;;;30.83;;
54897;SDS011;40800;52.704;6.398;2023-08-06T04:16:43;33.70;;;31.27;;
54897;SDS011;40800;52.704;6.398;2023-08-06T04:19:09;34.30;;;31.55;;
54897;SDS011;40800;52.704;6.398;2023-08-06T04:21:34;33.05;;;30.63;;
54897;SDS011;40800;52.704;6.398;2023-08-06T04:24:00;33.10;;;30.70;;
54897;SDS011;40800;52.704;6.398;2023-08-06T04:26:25;32.33;;;30.10;;
54897;SDS011;40800;52.704;6.398;2023-08-06T04:28:51;32.50;;;30.20;;
54897;SDS011;40800;52.704;6.398;2023-08-06T04:31:17;33.10;;;30.80;;
54897;SDS011;40800;52.704;6.398;2023-08-06T04:33:42;34.35;;;32.00;;
54897;SDS011;40800;52.704;6.398;2023-08-06T04:36:08;35.55;;;33.08;;
54897;SDS011;40800;52.704;6.398;2023-08-06T04:38:33;35.45;;;33.03;;
54897;SDS011;40800;52.704;6.398;2023-08-06T04:41:01;34.38;;;32.15;;
54897;SDS011;40800;52.704;6.398;2023-08-06T04:43:28;36.20;;;33.67;;
54897;SDS011;40800;52.704;6.398;2023-08-06T04:45:54;40.15;;;37.58;;
54897;SDS011;40800;52.704;6.398;2023-08-06T04:48:21;34.88;;;32.33;;
54897;SDS011;40800;52.704;6.398;2023-08-06T04:50:47;34.47;;;32.17;;
54897;SDS011;40800;52.704;6.398;2023-08-06T04:55:40;37.38;;;33.72;;
54897;SDS011;40800;52.704;6.398;2023-08-06T04:58:06;36.43;;;33.00;;
54897;SDS011;40800;52.704;6.398;2023-08-06T05:02:59;33.47;;;31.27;;
54897;SDS011;40800;52.704;6.398;2023-08-06T05:05:26;34.33;;;31.90;;
54897;SDS011;40800;52.704;6.398;2023-08-06T05:07:53;34.70;;;32.20;;
54897;SDS011;40800;52.704;6.398;2023-08-06T05:10:20;33.72;;;31.23;;
54897;SDS011;40800;52.704;6.398;2023-08-06T05:12:45;34.55;;;31.52;;
54897;SDS011;40800;52.704;6.398;2023-08-06T05:15:11;34.58;;;32.03;;
54897;SDS011;40800;52.704;6.398;2023-08-06T05:17:37;33.50;;;30.95;;
54897;SDS011;40800;52.704;6.398;2023-08-06T05:20:02;37.88;;;32.65;;
54897;SDS011;40800;52.704;6.398;2023-08-06T05:22:28;33.85;;;31.35;;
54897;SDS011;40800;52.704;6.398;2023-08-06T05:24:54;33.55;;;31.05;;
54897;SDS011;40800;52.704;6.398;2023-08-06T05:27:20;33.25;;;30.50;;
54897;SDS011;40800;52.704;6.398;2023-08-06T05:29:45;32.00;;;29.77;;
54897;SDS011;40800;52.704;6.398;2023-08-06T05:34:38;32.00;;;29.60;;
54897;SDS011;40800;52.704;6.398;2023-08-06T05:37:04;31.77;;;29.35;;
54897;SDS011;40800;52.704;6.398;2023-08-06T05:39:30;32.13;;;29.95;;
54897;SDS011;40800;52.704;6.398;2023-08-06T05:41:55;34.95;;;31.70;;
54897;SDS011;40800;52.704;6.398;2023-08-06T05:44:21;31.80;;;29.35;;
54897;SDS011;40800;52.704;6.398;2023-08-06T05:46:48;32.72;;;30.33;;
54897;SDS011;40800;52.704;6.398;2023-08-06T05:49:14;32.40;;;30.00;;
54897;SDS011;40800;52.704;6.398;2023-08-06T05:51:40;31.83;;;29.50;;
54897;SDS011;40800;52.704;6.398;2023-08-06T05:54:06;30.73;;;28.65;;
54897;SDS011;40800;52.704;6.398;2023-08-06T05:56:32;31.20;;;29.05;;
54897;SDS011;40800;52.704;6.398;2023-08-06T05:58:57;42.38;;;32.47;;
54897;SDS011;40800;52.704;6.398;2023-08-06T06:01:23;32.15;;;29.85;;
54897;SDS011;40800;52.704;6.398;2023-08-06T06:03:48;105.88;;;39.25;;
54897;SDS011;40800;52.704;6.398;2023-08-06T06:06:14;30.58;;;28.52;;
54897;SDS011;40800;52.704;6.398;2023-08-06T06:08:41;30.40;;;28.10;;
54897;SDS011;40800;52.704;6.398;2023-08-06T06:11:06;32.15;;;29.95;;
54897;SDS011;40800;52.704;6.398;2023-08-06T06:13:32;31.83;;;29.63;;
54897;SDS011;40800;52.704;6.398;2023-08-06T06:15:57;32.25;;;29.85;;
54897;SDS011;40800;52.704;6.398;2023-08-06T06:18:23;35.88;;;32.25;;
54897;SDS011;40800;52.704;6.398;2023-08-06T06:20:48;31.88;;;29.67;;
54897;SDS011;40800;52.704;6.398;2023-08-06T06:23:14;31.38;;;29.13;;
54897;SDS011;40800;52.704;6.398;2023-08-06T06:25:43;32.88;;;30.45;;
54897;SDS011;40800;52.704;6.398;2023-08-06T06:28:11;32.40;;;30.05;;
54897;SDS011;40800;52.704;6.398;2023-08-06T06:30:37;32.40;;;30.00;;
54897;SDS011;40800;52.704;6.398;2023-08-06T06:33:03;35.67;;;31.23;;
54897;SDS011;40800;52.704;6.398;2023-08-06T06:35:28;45.72;;;34.28;;
54897;SDS011;40800;52.704;6.398;2023-08-06T06:37:54;32.40;;;30.10;;
54897;SDS011;40800;52.704;6.398;2023-08-06T06:40:20;33.25;;;30.95;;
54897;SDS011;40800;52.704;6.398;2023-08-06T06:42:45;31.75;;;29.52;;
54897;SDS011;40800;52.704;6.398;2023-08-06T06:45:11;30.95;;;28.88;;
54897;SDS011;40800;52.704;6.398;2023-08-06T06:47:37;31.23;;;29.02;;
54897;SDS011;40800;52.704;6.398;2023-08-06T06:50:02;32.35;;;29.95;;
54897;SDS011;40800;52.704;6.398;2023-08-06T06:52:29;31.60;;;29.35;;
54897;SDS011;40800;52.704;6.398;2023-08-06T06:54:55;33.13;;;30.85;;
54897;SDS011;40800;52.704;6.398;2023-08-06T06:57:20;32.28;;;29.90;;
54897;SDS011;40800;52.704;6.398;2023-08-06T06:59:46;33.75;;;31.25;;
54897;SDS011;40800;52.704;6.398;2023-08-06T07:02:11;67.57;;;35.65;;
54897;SDS011;40800;52.704;6.398;2023-08-06T07:04:37;32.08;;;29.60;;
54897;SDS011;40800;52.704;6.398;2023-08-06T07:07:03;32.53;;;30.30;;
54897;SDS011;40800;52.704;6.398;2023-08-06T07:09:29;33.88;;;31.38;;
54897;SDS011;40800;52.704;6.398;2023-08-06T07:11:54;33.03;;;30.73;;
54897;SDS011;40800;52.704;6.398;2023-08-06T07:14:20;32.42;;;30.23;;
54897;SDS011;40800;52.704;6.398;2023-08-06T07:16:45;34.92;;;32.22;;
54897;SDS011;40800;52.704;6.398;2023-08-06T07:19:12;34.17;;;31.77;;
54897;SDS011;40800;52.704;6.398;2023-08-06T07:21:38;34.33;;;31.90;;
54897;SDS011;40800;52.704;6.398;2023-08-06T07:24:03;33.50;;;31.00;;
54897;SDS011;40800;52.704;6.398;2023-08-06T07:26:29;33.53;;;31.23;;
54897;SDS011;40800;52.704;6.398;2023-08-06T07:28:54;33.50;;;31.10;;
54897;SDS011;40800;52.704;6.398;2023-08-06T07:31:20;34.40;;;31.98;;
54897;SDS011;40800;52.704;6.398;2023-08-06T07:33:46;33.40;;;31.00;;
54897;SDS011;40800;52.704;6.398;2023-08-06T07:36:12;34.00;;;31.48;;
54897;SDS011;40800;52.704;6.398;2023-08-06T07:38:39;33.42;;;31.10;;
54897;SDS011;40800;52.704;6.398;2023-08-06T07:41:04;34.17;;;31.67;;
54897;SDS011;40800;52.704;6.398;2023-08-06T07:43:30;33.80;;;31.38;;
54897;SDS011;40800;52.704;6.398;2023-08-06T07:45:59;34.00;;;31.23;;
54897;SDS011;40800;52.704;6.398;2023-08-06T07:48:25;33.58;;;31.20;;
54897;SDS011;40800;52.704;6.398;2023-08-06T07:50:52;33.70;;;31.30;;
54897;SDS011;40800;52.704;6.398;2023-08-06T07:53:21;34.67;;;32.03;;
54897;SDS011;40800;52.704;6.398;2023-08-06T07:55:49;37.67;;;34.35;;
54897;SDS011;40800;52.704;6.398;2023-08-06T07:58:16;34.17;;;31.77;;
54897;SDS011;40800;52.704;6.398;2023-08-06T08:00:42;33.80;;;31.20;;
54897;SDS011;40800;52.704;6.398;2023-08-06T08:03:10;33.58;;;31.17;;
54897;SDS011;40800;52.704;6.398;2023-08-06T08:05:40;287.90;;;64.05;;
54897;SDS011;40800;52.704;6.398;2023-08-06T08:08:09;32.88;;;30.42;;
54897;SDS011;40800;52.704;6.398;2023-08-06T08:10:35;33.67;;;31.27;;
54897;SDS011;40800;52.704;6.398;2023-08-06T08:13:04;33.20;;;30.80;;
54897;SDS011;40800;52.704;6.398;2023-08-06T08:15:30;61.33;;;35.85;;
54897;SDS011;40800;52.704;6.398;2023-08-06T08:17:57;33.78;;;31.23;;
54897;SDS011;40800;52.704;6.398;2023-08-06T08:20:23;35.33;;;32.58;;
54897;SDS011;40800;52.704;6.398;2023-08-06T08:22:48;34.92;;;32.20;;
54897;SDS011;40800;52.704;6.398;2023-08-06T08:25:15;33.55;;;31.15;;
54897;SDS011;40800;52.704;6.398;2023-08-06T08:27:41;33.30;;;30.90;;
54897;SDS011;40800;52.704;6.398;2023-08-06T08:30:07;215.20;;;56.05;;
54897;SDS011;40800;52.704;6.398;2023-08-06T08:32:32;41.70;;;37.20;;
54897;SDS011;40800;52.704;6.398;2023-08-06T08:34:58;33.75;;;31.25;;
54897;SDS011;40800;52.704;6.398;2023-08-06T08:37:24;36.22;;;33.45;;
54897;SDS011;40800;52.704;6.398;2023-08-06T08:39:49;34.47;;;31.98;;
54897;SDS011;40800;52.704;6.398;2023-08-06T08:42:15;33.67;;;31.13;;
54897;SDS011;40800;52.704;6.398;2023-08-06T08:44:44;32.92;;;30.48;;
54897;SDS011;40800;52.704;6.398;2023-08-06T08:47:10;34.08;;;31.25;;
54897;SDS011;40800;52.704;6.398;2023-08-06T08:49:36;32.03;;;29.73;;
54897;SDS011;40800;52.704;6.398;2023-08-06T08:52:02;32.15;;;29.73;;
54897;SDS011;40800;52.704;6.398;2023-08-06T08:54:31;29.83;;;27.73;;
54897;SDS011;40800;52.704;6.398;2023-08-06T08:56:58;31.02;;;28.63;;
54897;SDS011;40800;52.704;6.398;2023-08-06T08:59:23;34.38;;;30.02;;
54897;SDS011;40800;52.704;6.398;2023-08-06T09:01:49;29.65;;;27.45;;
54897;SDS011;40800;52.704;6.398;2023-08-06T09:04:16;30.60;;;28.10;;
54897;SDS011;40800;52.704;6.398;2023-08-06T09:06:43;27.35;;;25.35;;
54897;SDS011;40800;52.704;6.398;2023-08-06T09:09:19;26.35;;;24.50;;
54897;SDS011;40800;52.704;6.398;2023-08-06T09:11:51;27.90;;;25.97;;
54897;SDS011;40800;52.704;6.398;2023-08-06T09:14:17;27.30;;;25.25;;
54897;SDS011;40800;52.704;6.398;2023-08-06T09:16:43;25.77;;;23.98;;
54897;SDS011;40800;52.704;6.398;2023-08-06T09:19:09;25.80;;;24.10;;
54897;SDS011;40800;52.704;6.398;2023-08-06T09:21:37;24.65;;;22.80;;
54897;SDS011;40800;52.704;6.398;2023-08-06T09:24:11;23.13;;;21.52;;
54897;SDS011;40800;52.704;6.398;2023-08-06T09:26:40;24.90;;;23.10;;
54897;SDS011;40800;52.704;6.398;2023-08-06T09:29:08;25.15;;;23.13;;
54897;SDS011;40800;52.704;6.398;2023-08-06T09:31:43;23.95;;;22.15;;
54897;SDS011;40800;52.704;6.398;2023-08-06T09:34:15;23.33;;;21.65;;
54897;SDS011;40800;52.704;6.398;2023-08-06T09:36:48;22.70;;;21.05;;
54897;SDS011;40800;52.704;6.398;2023-08-06T09:39:26;22.17;;;20.45;;
54897;SDS011;40800;52.704;6.398;2023-08-06T09:41:59;22.60;;;21.00;;
54897;SDS011;40800;52.704;6.398;2023-08-06T09:44:31;21.40;;;20.00;;
54897;SDS011;40800;52.704;6.398;2023-08-06T09:46:58;22.15;;;20.52;;
54897;SDS011;40800;52.704;6.398;2023-08-06T09:52:05;22.90;;;21.30;;
54897;SDS011;40800;52.704;6.398;2023-08-06T09:54:31;21.27;;;19.75;;
54897;SDS011;40800;52.704;6.398;2023-08-06T09:56:58;21.48;;;19.90;;
54897;SDS011;40800;52.704;6.398;2023-08-06T09:59:25;21.23;;;19.75;;
54897;SDS011;40800;52.704;6.398;2023-08-06T10:01:51;20.85;;;19.35;;
54897;SDS011;40800;52.704;6.398;2023-08-06T10:04:19;20.52;;;19.13;;
54897;SDS011;40800;52.704;6.398;2023-08-06T10:06:46;20.75;;;19.35;;
54897;SDS011;40800;52.704;6.398;2023-08-06T10:09:15;20.70;;;19.10;;
54897;SDS011;40800;52.704;6.398;2023-08-06T10:11:42;19.33;;;18.03;;
54897;SDS011;40800;52.704;6.398;2023-08-06T10:14:14;18.83;;;17.42;;
54897;SDS011;40800;52.704;6.398;2023-08-06T10:16:44;19.75;;;18.40;;
54897;SDS011;40800;52.704;6.398;2023-08-06T10:19:12;19.13;;;17.77;;
54897;SDS011;40800;52.704;6.398;2023-08-06T10:21:38;19.23;;;17.70;;
54897;SDS011;40800;52.704;6.398;2023-08-06T10:24:06;18.73;;;17.23;;
54897;SDS011;40800;52.704;6.398;2023-08-06T10:26:36;18.38;;;17.00;;
54897;SDS011;40800;52.704;6.398;2023-08-06T10:29:48;17.90;;;16.63;;
54897;SDS011;40800;52.704;6.398;2023-08-06T10:32:04;18.10;;;16.90;;
54897;SDS011;40800;52.704;6.398;2023-08-06T10:37:24;17.60;;;16.40;;
54897;SDS011;40800;52.704;6.398;2023-08-06T10:39:59;16.55;;;15.27;;
54897;SDS011;40800;52.704;6.398;2023-08-06T10:42:28;17.52;;;16.17;;
54897;SDS011;40800;52.704;6.398;2023-08-06T10:47:40;15.32;;;14.20;;
54897;SDS011;40800;52.704;6.398;2023-08-06T10:50:07;14.82;;;13.90;;
54897;SDS011;40800;52.704;6.398;2023-08-06T10:52:36;15.18;;;14.18;;
54897;SDS011;40800;52.704;6.398;2023-08-06T10:55:01;14.20;;;13.20;;
54897;SDS011;40800;52.704;6.398;2023-08-06T10:57:27;14.93;;;13.90;;
54897;SDS011;40800;52.704;6.398;2023-08-06T10:59:53;13.23;;;12.30;;
54897;SDS011;40800;52.704;6.398;2023-08-06T11:02:18;13.83;;;12.93;;
54897;SDS011;40800;52.704;6.398;2023-08-06T11:04:44;14.93;;;13.93;;
54897;SDS011;40800;52.704;6.398;2023-08-06T11:07:10;13.47;;;12.53;;
54897;SDS011;40800;52.704;6.398;2023-08-06T11:09:35;12.52;;;11.65;;
54897;SDS011;40800;52.704;6.398;2023-08-06T11:12:02;13.48;;;12.45;;
54897;SDS011;40800;52.704;6.398;2023-08-06T11:14:31;13.98;;;13.00;;
54897;SDS011;40800;52.704;6.398;2023-08-06T11:16:57;12.13;;;11.18;;
54897;SDS011;40800;52.704;6.398;2023-08-06T11:19:22;13.73;;;12.53;;
54897;SDS011;40800;52.704;6.398;2023-08-06T11:21:49;11.70;;;10.80;;
54897;SDS011;40800;52.704;6.398;2023-08-06T11:24:16;11.50;;;10.60;;
54897;SDS011;40800;52.704;6.398;2023-08-06T11:26:42;11.40;;;10.60;;
54897;SDS011;40800;52.704;6.398;2023-08-06T11:29:09;11.00;;;10.13;;
54897;SDS011;40800;52.704;6.398;2023-08-06T11:31:35;9.52;;;8.80;;
54897;SDS011;40800;52.704;6.398;2023-08-06T11:34:01;10.18;;;9.35;;
54897;SDS011;40800;52.704;6.398;2023-08-06T11:36:30;9.43;;;8.70;;
54897;SDS011;40800;52.704;6.398;2023-08-06T11:38:57;7.90;;;7.20;;
54897;SDS011;40800;52.704;6.398;2023-08-06T11:41:24;7.22;;;5.03;;
54897;SDS011;40800;52.704;6.398;2023-08-06T11:43:50;5.17;;;4.30;;
54897;SDS011;40800;52.704;6.398;2023-08-06T11:46:16;4.03;;;3.53;;
54897;SDS011;40800;52.704;6.398;2023-08-06T11:48:51;4.43;;;3.33;;
54897;SDS011;40800;52.704;6.398;2023-08-06T11:51:18;5.97;;;3.72;;
54897;SDS011;40800;52.704;6.398;2023-08-06T11:53:48;6.15;;;3.13;;
54897;SDS011;40800;52.704;6.398;2023-08-06T11:56:14;6.60;;;3.17;;
54897;SDS011;40800;52.704;6.398;2023-08-06T11:58:41;6.35;;;2.92;;
54897;SDS011;40800;52.704;6.398;2023-08-06T12:01:07;12.80;;;3.67;;
54897;SDS011;40800;52.704;6.398;2023-08-06T12:03:38;10.87;;;3.03;;
54897;SDS011;40800;52.704;6.398;2023-08-06T12:06:04;8.70;;;3.20;;
54897;SDS011;40800;52.704;6.398;2023-08-06T12:08:30;5.97;;;2.97;;
54897;SDS011;40800;52.704;6.398;2023-08-06T12:10:55;3.90;;;3.10;;
54897;SDS011;40800;52.704;6.398;2023-08-06T12:13:21;7.37;;;3.17;;
54897;SDS011;40800;52.704;6.398;2023-08-06T12:15:46;5.50;;;2.80;;
54897;SDS011;40800;52.704;6.398;2023-08-06T12:18:12;4.37;;;3.00;;
54897;SDS011;40800;52.704;6.398;2023-08-06T12:20:38;9.27;;;2.93;;
54897;SDS011;40800;52.704;6.398;2023-08-06T12:23:03;4.07;;;2.80;;
54897;SDS011;40800;52.704;6.398;2023-08-06T12:25:29;4.70;;;2.80;;
54897;SDS011;40800;52.704;6.398;2023-08-06T12:27:55;13.50;;;3.63;;
54897;SDS011;40800;52.704;6.398;2023-08-06T12:30:20;5.50;;;2.90;;
54897;SDS011;40800;52.704;6.398;2023-08-06T12:32:46;5.23;;;2.70;;
54897;SDS011;40800;52.704;6.398;2023-08-06T12:35:11;4.47;;;3.23;;
54897;SDS011;40800;52.704;6.398;2023-08-06T12:37:39;4.80;;;2.88;;
54897;SDS011;40800;52.704;6.398;2023-08-06T12:40:04;5.60;;;3.07;;
54897;SDS011;40800;52.704;6.398;2023-08-06T12:42:31;4.47;;;3.08;;
54897;SDS011;40800;52.704;6.398;2023-08-06T12:44:56;5.93;;;3.00;;
54897;SDS011;40800;52.704;6.398;2023-08-06T12:47:22;5.33;;;2.80;;
54897;SDS011;40800;52.704;6.398;2023-08-06T12:49:47;3.43;;;2.70;;
54897;SDS011;40800;52.704;6.398;2023-08-06T12:52:14;3.67;;;2.72;;
54897;SDS011;40800;52.704;6.398;2023-08-06T12:54:41;4.60;;;3.03;;
54897;SDS011;40800;52.704;6.398;2023-08-06T12:57:07;5.27;;;3.37;;
54897;SDS011;40800;52.704;6.398;2023-08-06T12:59:33;4.10;;;2.87;;
54897;SDS011;40800;52.704;6.398;2023-08-06T13:01:59;5.17;;;3.30;;
54897;SDS011;40800;52.704;6.398;2023-08-06T13:04:25;6.30;;;4.00;;
54897;SDS011;40800;52.704;6.398;2023-08-06T13:06:50;5.23;;;3.77;;
54897;SDS011;40800;52.704;6.398;2023-08-06T13:09:16;4.97;;;4.27;;
54897;SDS011;40800;52.704;6.398;2023-08-06T13:11:42;6.90;;;4.77;;
54897;SDS011;40800;52.704;6.398;2023-08-06T13:14:11;5.50;;;4.75;;
54897;SDS011;40800;52.704;6.398;2023-08-06T13:16:38;7.32;;;5.57;;
54897;SDS011;40800;52.704;6.398;2023-08-06T13:19:06;9.40;;;5.95;;
54897;SDS011;40800;52.704;6.398;2023-08-06T13:21:32;7.25;;;6.57;;
54897;SDS011;40800;52.704;6.398;2023-08-06T13:24:08;7.47;;;6.78;;
54897;SDS011;40800;52.704;6.398;2023-08-06T13:26:34;7.85;;;7.13;;
54897;SDS011;40800;52.704;6.398;2023-08-06T13:29:00;8.10;;;7.50;;
54897;SDS011;40800;52.704;6.398;2023-08-06T13:31:27;8.63;;;7.82;;
54897;SDS011;40800;52.704;6.398;2023-08-06T13:33:56;8.90;;;8.05;;
54897;SDS011;40800;52.704;6.398;2023-08-06T13:36:23;9.38;;;8.68;;
54897;SDS011;40800;52.704;6.398;2023-08-06T13:38:49;8.23;;;7.63;;
54897;SDS011;40800;52.704;6.398;2023-08-06T13:41:15;9.13;;;8.32;;
54897;SDS011;40800;52.704;6.398;2023-08-06T13:43:41;8.80;;;8.18;;
54897;SDS011;40800;52.704;6.398;2023-08-06T13:46:07;9.13;;;8.33;;
54897;SDS011;40800;52.704;6.398;2023-08-06T13:48:32;9.73;;;8.75;;
54897;SDS011;40800;52.704;6.398;2023-08-06T13:50:58;8.80;;;8.20;;
54897;SDS011;40800;52.704;6.398;2023-08-06T13:53:23;10.30;;;9.37;;
54897;SDS011;40800;52.704;6.398;2023-08-06T13:55:54;9.48;;;8.63;;
54897;SDS011;40800;52.704;6.398;2023-08-06T13:58:21;9.20;;;8.45;;
54897;SDS011;40800;52.704;6.398;2023-08-06T14:00:47;10.13;;;9.43;;
54897;SDS011;40800;52.704;6.398;2023-08-06T14:03:12;10.48;;;9.68;;
54897;SDS011;40800;52.704;6.398;2023-08-06T14:05:38;10.77;;;9.98;;
54897;SDS011;40800;52.704;6.398;2023-08-06T14:08:04;11.93;;;11.10;;
54897;SDS011;40800;52.704;6.398;2023-08-06T14:10:30;13.05;;;12.15;;
54897;SDS011;40800;52.704;6.398;2023-08-06T14:12:55;13.60;;;12.70;;
54897;SDS011;40800;52.704;6.398;2023-08-06T14:15:21;14.57;;;13.52;;
54897;SDS011;40800;52.704;6.398;2023-08-06T14:17:47;15.90;;;14.55;;
54897;SDS011;40800;52.704;6.398;2023-08-06T14:20:12;15.88;;;14.65;;
54897;SDS011;40800;52.704;6.398;2023-08-06T14:22:38;17.27;;;16.02;;
54897;SDS011;40800;52.704;6.398;2023-08-06T14:25:04;18.90;;;17.60;;
54897;SDS011;40800;52.704;6.398;2023-08-06T14:27:30;20.67;;;19.17;;
54897;SDS011;40800;52.704;6.398;2023-08-06T14:29:55;22.17;;;20.58;;
54897;SDS011;40800;52.704;6.398;2023-08-06T14:32:21;23.58;;;21.88;;
54897;SDS011;40800;52.704;6.398;2023-08-06T14:34:47;24.40;;;22.65;;
54897;SDS011;40800;52.704;6.398;2023-08-06T14:37:12;23.48;;;21.88;;
54897;SDS011;40800;52.704;6.398;2023-08-06T14:39:38;23.17;;;21.50;;
54897;SDS011;40800;52.704;6.398;2023-08-06T14:42:04;21.08;;;19.67;;